createdAt,value
2019-03-31T00:00:40.473Z,7.62
2019-03-31T00:01:40.557Z,7.61
2019-03-31T00:02:40.438Z,7.55
2019-03-31T00:03:40.507Z,7.47
2019-03-31T00:04:40.417Z,7.49
2019-03-31T00:05:40.451Z,7.46
2019-03-31T00:06:40.396Z,7.43
2019-03-31T00:07:40.385Z,7.40
2019-03-31T00:08:40.377Z,7.39
2019-03-31T00:09:40.370Z,7.31
2019-03-31T00:10:40.363Z,7.29
2019-03-31T00:11:40.366Z,7.29
2019-03-31T00:12:40.354Z,7.28
2019-03-31T00:13:40.323Z,7.26
2019-03-31T00:14:40.322Z,7.28
2019-03-31T00:15:40.326Z,7.25
2019-03-31T00:16:40.288Z,7.21
2019-03-31T00:17:40.276Z,7.19
2019-03-31T00:18:40.262Z,7.16
2019-03-31T00:19:40.254Z,7.18
2019-03-31T00:20:40.309Z,7.24
2019-03-31T00:21:40.233Z,7.24
2019-03-31T00:22:40.227Z,7.34
2019-03-31T00:23:40.225Z,7.26
2019-03-31T00:24:40.198Z,7.18
2019-03-31T00:25:40.201Z,7.31
2019-03-31T00:26:40.192Z,7.24
2019-03-31T00:27:40.170Z,7.22
2019-03-31T00:28:40.158Z,7.22
2019-03-31T00:29:40.168Z,7.16
2019-03-31T00:30:40.166Z,7.22
2019-03-31T00:31:40.126Z,7.31
2019-03-31T00:32:40.122Z,7.33
2019-03-31T00:33:40.106Z,7.24
2019-03-31T00:34:40.088Z,7.26
2019-03-31T00:35:40.134Z,7.21
2019-03-31T00:36:40.068Z,7.28
2019-03-31T00:37:40.060Z,7.26
2019-03-31T00:38:40.052Z,7.16
2019-03-31T00:39:40.034Z,7.26
2019-03-31T00:40:40.032Z,7.26
2019-03-31T00:41:40.036Z,7.19
2019-03-31T00:42:40.049Z,7.18
2019-03-31T00:43:39.996Z,7.18
2019-03-31T00:44:39.996Z,7.18
2019-03-31T00:45:39.974Z,7.15
2019-03-31T00:46:39.986Z,7.11
2019-03-31T00:47:39.960Z,7.19
2019-03-31T00:48:39.944Z,7.21
2019-03-31T00:49:39.934Z,7.19
2019-03-31T00:50:39.992Z,7.21
2019-03-31T00:51:39.927Z,7.31
2019-03-31T00:52:39.899Z,7.31
2019-03-31T00:53:39.887Z,7.33
2019-03-31T00:54:39.877Z,7.31
2019-03-31T00:55:39.867Z,7.31
2019-03-31T00:56:39.902Z,7.26
2019-03-31T00:57:39.839Z,7.29
2019-03-31T00:58:39.836Z,7.31
2019-03-31T00:59:39.827Z,7.26
2019-03-31T01:00:39.810Z,7.28
2019-03-31T01:01:39.815Z,7.34
2019-03-31T01:02:39.795Z,7.26
2019-03-31T01:03:39.805Z,7.15
2019-03-31T01:04:39.845Z,7.31
2019-03-31T01:05:39.758Z,7.21
2019-03-31T01:06:39.811Z,7.22
2019-03-31T01:07:39.744Z,7.18
2019-03-31T01:08:39.725Z,7.26
2019-03-31T01:09:39.711Z,7.25
2019-03-31T01:10:39.711Z,7.16
2019-03-31T01:11:39.705Z,7.28
2019-03-31T01:12:39.691Z,7.29
2019-03-31T01:13:39.667Z,7.28
2019-03-31T01:14:39.657Z,7.43
2019-03-31T01:15:39.659Z,7.47
2019-03-31T01:16:39.657Z,7.43
2019-03-31T01:17:39.667Z,7.42
2019-03-31T01:18:39.620Z,7.43
2019-03-31T01:19:39.609Z,7.39
2019-03-31T01:20:39.634Z,7.50
2019-03-31T01:21:39.613Z,7.47
2019-03-31T01:22:39.574Z,7.52
2019-03-31T01:23:39.565Z,7.52
2019-03-31T01:24:39.558Z,7.60
2019-03-31T01:25:39.546Z,7.61
2019-03-31T01:26:39.534Z,7.71
2019-03-31T01:27:39.576Z,7.73
2019-03-31T01:28:39.508Z,7.69
2019-03-31T01:29:39.503Z,7.69
2019-03-31T01:30:39.496Z,7.81
2019-03-31T01:31:49.647Z,7.77
2019-03-31T01:32:40.483Z,7.87
2019-03-31T01:33:39.462Z,7.91
2019-03-31T01:34:39.440Z,8.01
2019-03-31T01:35:39.440Z,8.02
2019-03-31T01:36:39.424Z,7.99
2019-03-31T01:37:39.459Z,7.95
2019-03-31T01:38:39.401Z,7.95
2019-03-31T01:39:39.382Z,8.01
2019-03-31T01:40:39.415Z,7.94
2019-03-31T01:41:39.371Z,7.99
2019-03-31T01:42:39.378Z,7.96
2019-03-31T01:43:39.344Z,7.96
2019-03-31T01:44:39.337Z,8.04
2019-03-31T01:45:39.324Z,7.95
2019-03-31T01:46:39.314Z,7.95
2019-03-31T01:47:39.383Z,7.96
2019-03-31T01:48:39.292Z,7.94
2019-03-31T01:49:39.274Z,7.98
2019-03-31T01:50:39.270Z,7.96
2019-03-31T01:51:39.260Z,7.92
2019-03-31T01:52:39.268Z,7.96
2019-03-31T01:53:39.274Z,7.95
2019-03-31T01:54:39.230Z,7.84
2019-03-31T01:55:39.224Z,7.92
2019-03-31T01:56:39.202Z,7.91
2019-03-31T01:57:39.209Z,7.86
2019-03-31T01:58:39.183Z,7.83
2019-03-31T01:59:39.176Z,7.80
2019-03-31T02:00:39.162Z,7.74
2019-03-31T02:01:39.218Z,7.69
2019-03-31T02:02:39.160Z,7.73
2019-03-31T02:03:39.129Z,7.68
2019-03-31T02:04:39.129Z,7.71
2019-03-31T02:05:39.106Z,7.62
2019-03-31T02:06:39.090Z,7.60
2019-03-31T02:07:39.177Z,7.49
2019-03-31T02:08:39.084Z,7.50
2019-03-31T02:09:39.070Z,7.47
2019-03-31T02:10:39.073Z,7.40
2019-03-31T02:11:39.042Z,7.28
2019-03-31T02:12:39.033Z,7.33
2019-03-31T02:13:39.035Z,7.25
2019-03-31T02:14:39.018Z,7.21
2019-03-31T02:15:39.003Z,7.19
2019-03-31T02:16:38.990Z,7.15
2019-03-31T02:17:38.981Z,7.13
2019-03-31T02:18:39.036Z,7.00
2019-03-31T02:19:38.959Z,7.03
2019-03-31T02:20:38.967Z,7.00
2019-03-31T02:21:38.934Z,7.01
2019-03-31T02:22:38.925Z,6.96
2019-03-31T02:23:38.932Z,6.88
2019-03-31T02:24:38.897Z,6.88
2019-03-31T02:25:38.887Z,6.82
2019-03-31T02:26:38.877Z,6.86
2019-03-31T02:27:38.879Z,6.74
2019-03-31T02:28:38.877Z,6.73
2019-03-31T02:29:38.851Z,6.79
2019-03-31T02:30:38.837Z,6.70
2019-03-31T02:31:38.826Z,6.67
2019-03-31T02:32:38.810Z,6.56
2019-03-31T02:33:38.819Z,6.57
2019-03-31T02:34:38.857Z,6.60
2019-03-31T02:35:38.785Z,6.53
2019-03-31T02:36:38.772Z,6.42
2019-03-31T02:37:38.805Z,6.49
2019-03-31T02:38:38.763Z,6.42
2019-03-31T02:39:38.742Z,6.28
2019-03-31T02:40:38.729Z,6.28
2019-03-31T02:41:38.717Z,6.28
2019-03-31T02:42:38.711Z,6.24
2019-03-31T02:43:38.821Z,6.13
2019-03-31T02:44:38.685Z,6.16
2019-03-31T02:45:38.683Z,6.06
2019-03-31T02:46:38.669Z,6.09
2019-03-31T02:47:38.781Z,6.11
2019-03-31T02:48:38.663Z,5.95
2019-03-31T02:49:38.655Z,5.90
2019-03-31T02:50:38.624Z,5.87
2019-03-31T02:51:38.621Z,5.79
2019-03-31T02:52:38.629Z,5.69
2019-03-31T02:53:38.597Z,5.62
2019-03-31T02:54:38.595Z,5.70
2019-03-31T02:55:38.569Z,5.65
2019-03-31T02:56:38.554Z,5.57
2019-03-31T02:57:38.545Z,5.54
2019-03-31T02:58:38.540Z,5.58
2019-03-31T02:59:38.586Z,5.54
2019-03-31T03:00:38.515Z,5.55
2019-03-31T03:01:38.504Z,5.54
2019-03-31T03:02:42.181Z,5.51
2019-03-31T03:03:38.474Z,5.51
2019-03-31T03:04:38.482Z,5.41
2019-03-31T03:05:38.496Z,5.40
2019-03-31T03:06:38.454Z,5.39
2019-03-31T03:07:38.428Z,5.36
2019-03-31T03:08:38.445Z,5.30
2019-03-31T03:09:38.432Z,5.27
2019-03-31T03:10:38.400Z,5.33
2019-03-31T03:11:38.390Z,5.25
2019-03-31T03:12:38.378Z,5.34
2019-03-31T03:13:38.363Z,5.27
2019-03-31T03:14:38.402Z,5.29
2019-03-31T03:15:38.341Z,5.22
2019-03-31T03:16:38.331Z,5.15
2019-03-31T03:17:38.330Z,5.14
2019-03-31T03:18:38.315Z,5.12
2019-03-31T03:19:38.320Z,5.06
2019-03-31T03:20:38.289Z,5.15
2019-03-31T03:21:38.323Z,5.14
2019-03-31T03:22:38.276Z,5.04
2019-03-31T03:23:38.263Z,5.03
2019-03-31T03:24:38.267Z,4.98
2019-03-31T03:25:54.521Z,4.97
2019-03-31T03:26:39.229Z,4.93
2019-03-31T03:27:38.234Z,4.97
2019-03-31T03:28:38.209Z,4.93
2019-03-31T03:29:38.205Z,4.98
2019-03-31T03:30:38.383Z,5.06
2019-03-31T03:31:38.328Z,4.96
2019-03-31T03:32:38.163Z,4.91
2019-03-31T03:33:38.222Z,4.93
2019-03-31T03:34:38.161Z,4.97
2019-03-31T03:35:38.149Z,4.97
2019-03-31T03:36:42.582Z,4.93
2019-03-31T03:37:39.111Z,4.89
2019-03-31T03:38:38.139Z,4.89
2019-03-31T03:39:38.107Z,5.01
2019-03-31T03:40:38.144Z,4.88
2019-03-31T03:41:38.077Z,4.96
2019-03-31T03:42:38.052Z,4.89
2019-03-31T03:43:54.130Z,4.94
2019-03-31T03:44:39.065Z,4.96
2019-03-31T03:45:38.033Z,4.96
2019-03-31T03:46:38.038Z,4.94
2019-03-31T03:47:38.010Z,4.94
2019-03-31T03:48:37.989Z,4.94
2019-03-31T03:49:37.980Z,4.98
2019-03-31T03:50:37.993Z,4.93
2019-03-31T03:51:37.963Z,4.96
2019-03-31T03:52:37.987Z,4.94
2019-03-31T03:53:37.951Z,4.98
2019-03-31T03:54:37.931Z,5.04
2019-03-31T03:55:37.939Z,5.07
2019-03-31T03:56:37.910Z,5.03
2019-03-31T03:57:37.918Z,5.19
2019-03-31T03:58:37.898Z,5.09
2019-03-31T03:59:37.909Z,5.12
2019-03-31T04:00:37.881Z,5.18
2019-03-31T04:01:37.853Z,5.16
2019-03-31T04:02:37.848Z,5.22
2019-03-31T04:03:37.838Z,5.16
2019-03-31T04:04:37.837Z,5.21
2019-03-31T04:05:37.849Z,5.21
2019-03-31T04:06:37.802Z,5.22
2019-03-31T04:07:37.816Z,5.24
2019-03-31T04:08:37.783Z,5.30
2019-03-31T04:09:37.761Z,5.30
2019-03-31T04:10:37.778Z,5.36
2019-03-31T04:11:37.744Z,5.39
2019-03-31T04:12:37.819Z,5.41
2019-03-31T04:13:37.716Z,5.47
2019-03-31T04:14:37.736Z,5.43
2019-03-31T04:15:37.717Z,5.59
2019-03-31T04:16:37.696Z,5.47
2019-03-31T04:17:37.725Z,5.54
2019-03-31T04:18:37.668Z,5.54
2019-03-31T04:19:37.658Z,5.55
2019-03-31T04:20:39.560Z,5.57
2019-03-31T04:21:37.643Z,5.62
2019-03-31T04:22:37.625Z,5.62
2019-03-31T04:23:37.655Z,5.66
2019-03-31T04:24:37.607Z,5.61
2019-03-31T04:25:37.605Z,5.65
2019-03-31T04:26:37.603Z,5.76
2019-03-31T04:27:37.568Z,5.82
2019-03-31T04:28:37.562Z,5.79
2019-03-31T04:29:37.553Z,5.93
2019-03-31T04:30:37.557Z,5.94
2019-03-31T04:31:37.522Z,6.00
2019-03-31T04:32:38.894Z,5.98
2019-03-31T04:33:50.523Z,5.98
2019-03-31T04:34:38.543Z,5.95
2019-03-31T04:35:37.499Z,5.98
2019-03-31T04:36:37.470Z,6.00
2019-03-31T04:37:37.462Z,6.02
2019-03-31T04:38:37.456Z,6.08
2019-03-31T04:39:37.439Z,5.98
2019-03-31T04:40:37.454Z,5.97
2019-03-31T04:41:37.457Z,5.94
2019-03-31T04:42:37.401Z,5.93
2019-03-31T04:43:37.392Z,5.98
2019-03-31T04:44:37.387Z,5.97
2019-03-31T04:45:37.368Z,5.97
2019-03-31T04:46:37.434Z,5.91
2019-03-31T04:47:37.351Z,5.97
2019-03-31T04:48:37.339Z,5.97
2019-03-31T04:49:37.340Z,5.95
2019-03-31T04:50:37.316Z,5.85
2019-03-31T04:51:37.326Z,5.80
2019-03-31T04:52:37.306Z,5.85
2019-03-31T04:53:37.307Z,5.90
2019-03-31T04:54:37.282Z,5.82
2019-03-31T04:55:37.274Z,5.84
2019-03-31T04:56:37.267Z,5.82
2019-03-31T04:57:37.248Z,5.72
2019-03-31T04:58:37.228Z,5.76
2019-03-31T04:59:37.256Z,5.73
2019-03-31T05:00:37.207Z,5.80
2019-03-31T05:01:37.209Z,5.84
2019-03-31T05:02:37.186Z,5.90
2019-03-31T05:03:37.175Z,5.84
2019-03-31T05:04:37.165Z,5.84
2019-03-31T05:05:37.158Z,5.82
2019-03-31T05:06:37.176Z,5.84
2019-03-31T05:07:37.136Z,5.80
2019-03-31T05:08:37.125Z,5.90
2019-03-31T05:09:37.114Z,5.94
2019-03-31T05:10:37.100Z,5.94
2019-03-31T05:11:37.106Z,5.91
2019-03-31T05:12:37.076Z,6.00
2019-03-31T05:13:37.065Z,6.02
2019-03-31T05:14:37.057Z,6.11
2019-03-31T05:15:37.086Z,6.16
2019-03-31T05:16:37.050Z,6.15
2019-03-31T05:17:37.035Z,6.15
2019-03-31T05:18:37.009Z,6.31
2019-03-31T05:19:36.996Z,6.34
2019-03-31T05:20:36.991Z,6.30
2019-03-31T05:21:37.046Z,6.30
2019-03-31T05:22:36.967Z,6.31
2019-03-31T05:23:36.951Z,6.42
2019-03-31T05:24:36.944Z,6.35
2019-03-31T05:25:36.937Z,6.43
2019-03-31T05:26:36.922Z,6.50
2019-03-31T05:27:36.936Z,6.55
2019-03-31T05:28:36.899Z,6.43
2019-03-31T05:29:36.891Z,6.61
2019-03-31T05:30:36.877Z,6.65
2019-03-31T05:31:36.870Z,6.50
2019-03-31T05:32:36.876Z,6.63
2019-03-31T05:33:36.869Z,6.70
2019-03-31T05:34:36.840Z,6.71
2019-03-31T05:35:36.825Z,6.73
2019-03-31T05:36:36.809Z,6.82
2019-03-31T05:37:50.186Z,6.86
2019-03-31T05:38:37.791Z,6.97
2019-03-31T05:39:36.779Z,7.00
2019-03-31T05:40:36.807Z,7.07
2019-03-31T05:41:36.761Z,7.11
2019-03-31T05:42:36.773Z,7.18
2019-03-31T05:43:36.739Z,7.11
2019-03-31T05:44:36.729Z,7.22
2019-03-31T05:45:36.715Z,7.26
2019-03-31T05:46:36.709Z,7.44
2019-03-31T05:47:36.705Z,7.47
2019-03-31T05:48:36.707Z,7.49
2019-03-31T05:49:36.706Z,7.54
2019-03-31T05:50:36.659Z,7.61
2019-03-31T05:51:36.655Z,7.68
2019-03-31T05:52:36.650Z,7.77
2019-03-31T05:53:36.631Z,7.64
2019-03-31T05:54:36.618Z,7.76
2019-03-31T05:55:36.622Z,7.80
2019-03-31T05:56:36.597Z,7.74
2019-03-31T05:57:36.597Z,7.83
2019-03-31T05:58:36.578Z,7.88
2019-03-31T05:59:36.561Z,8.01
2019-03-31T06:00:36.553Z,7.95
2019-03-31T06:01:36.637Z,8.02
2019-03-31T06:02:36.546Z,8.04
2019-03-31T06:03:36.520Z,8.10
2019-03-31T06:04:36.513Z,8.09
2019-03-31T06:05:36.501Z,8.12
2019-03-31T06:06:37.222Z,8.10
2019-03-31T06:07:36.534Z,8.29
2019-03-31T06:08:36.472Z,8.31
2019-03-31T06:09:36.454Z,8.34
2019-03-31T06:10:36.442Z,8.39
2019-03-31T06:11:36.432Z,8.41
2019-03-31T06:12:36.438Z,8.39
2019-03-31T06:13:36.410Z,8.60
2019-03-31T06:14:36.421Z,8.59
2019-03-31T06:15:36.390Z,8.57
2019-03-31T06:16:36.386Z,8.57
2019-03-31T06:17:36.384Z,8.60
2019-03-31T06:18:36.372Z,8.57
2019-03-31T06:19:36.353Z,8.63
2019-03-31T06:20:36.352Z,8.72
2019-03-31T06:21:36.366Z,8.70
2019-03-31T06:22:36.333Z,8.71
2019-03-31T06:23:36.306Z,8.80
2019-03-31T06:24:36.301Z,8.72
2019-03-31T06:25:36.288Z,8.75
2019-03-31T06:26:36.272Z,8.85
2019-03-31T06:27:36.298Z,8.88
2019-03-31T06:28:36.256Z,8.90
2019-03-31T06:29:36.240Z,8.89
2019-03-31T06:30:36.237Z,8.90
2019-03-31T06:31:36.215Z,8.90
2019-03-31T06:32:36.221Z,9.01
2019-03-31T06:33:36.249Z,9.09
2019-03-31T06:34:46.804Z,9.14
2019-03-31T06:35:37.181Z,9.22
2019-03-31T06:36:36.173Z,9.18
2019-03-31T06:37:36.156Z,9.29
2019-03-31T06:38:36.157Z,9.45
2019-03-31T06:39:36.137Z,9.78
2019-03-31T06:40:36.119Z,10.26
2019-03-31T06:41:36.137Z,10.76
2019-03-31T06:42:36.106Z,11.27
2019-03-31T06:43:36.110Z,11.82
2019-03-31T06:44:38.087Z,12.26
2019-03-31T06:45:36.069Z,12.51
2019-03-31T06:46:36.053Z,12.68
2019-03-31T06:47:36.095Z,12.99
2019-03-31T06:48:36.070Z,13.29
2019-03-31T06:49:36.025Z,13.54
2019-03-31T06:50:36.013Z,13.76
2019-03-31T06:51:36.003Z,13.97
2019-03-31T06:52:35.989Z,14.22
2019-03-31T06:53:35.987Z,14.38
2019-03-31T06:54:36.003Z,14.64
2019-03-31T06:55:35.959Z,14.90
2019-03-31T06:56:35.941Z,15.29
2019-03-31T06:57:35.931Z,15.58
2019-03-31T06:58:35.957Z,15.96
2019-03-31T06:59:35.909Z,16.24
2019-03-31T07:00:35.934Z,16.51
2019-03-31T07:01:35.895Z,16.73
2019-03-31T07:02:35.881Z,16.90
2019-03-31T07:03:35.870Z,17.04
2019-03-31T07:04:35.879Z,17.14
2019-03-31T07:05:35.846Z,17.25
2019-03-31T07:06:35.835Z,17.37
2019-03-31T07:07:35.845Z,17.35
2019-03-31T07:08:35.826Z,17.53
2019-03-31T07:09:35.826Z,17.75
2019-03-31T07:10:35.792Z,17.81
2019-03-31T07:11:35.781Z,17.49
2019-03-31T07:12:35.771Z,17.72
2019-03-31T07:13:35.756Z,17.63
2019-03-31T07:14:35.765Z,17.87
2019-03-31T07:15:35.752Z,17.88
2019-03-31T07:16:35.742Z,17.63
2019-03-31T07:17:35.761Z,17.76
2019-03-31T07:18:35.723Z,17.47
2019-03-31T07:19:35.724Z,17.09
2019-03-31T07:20:35.694Z,16.73
2019-03-31T07:21:35.685Z,16.54
2019-03-31T07:22:35.662Z,16.24
2019-03-31T07:23:35.672Z,16.22
2019-03-31T07:24:35.702Z,15.81
2019-03-31T07:25:37.164Z,15.52
2019-03-31T07:26:35.623Z,15.20
2019-03-31T07:27:35.618Z,15.10
2019-03-31T07:28:35.595Z,14.74
2019-03-31T07:29:35.587Z,14.46
2019-03-31T07:30:35.584Z,14.18
2019-03-31T07:31:35.572Z,14.05
2019-03-31T07:32:35.550Z,14.00
2019-03-31T07:33:35.556Z,13.96
2019-03-31T07:34:35.540Z,13.86
2019-03-31T07:35:38.830Z,13.76
2019-03-31T07:36:35.523Z,13.71
2019-03-31T07:37:46.604Z,13.64
2019-03-31T07:38:39.204Z,13.65
2019-03-31T07:39:35.825Z,13.54
2019-03-31T07:40:35.653Z,13.51
2019-03-31T07:41:35.601Z,13.47
2019-03-31T07:42:35.458Z,13.76
2019-03-31T07:43:35.432Z,13.64
2019-03-31T07:44:35.429Z,13.51
2019-03-31T07:45:35.440Z,13.55
2019-03-31T07:46:35.403Z,13.26
2019-03-31T07:47:35.455Z,13.14
2019-03-31T07:48:35.394Z,12.95
2019-03-31T07:49:35.369Z,12.91
2019-03-31T07:50:35.358Z,12.83
2019-03-31T07:51:37.554Z,12.79
2019-03-31T07:52:35.332Z,12.69
2019-03-31T07:53:35.317Z,12.53
2019-03-31T07:54:35.314Z,12.43
2019-03-31T07:55:35.303Z,12.40
2019-03-31T07:56:35.310Z,12.38
2019-03-31T07:57:35.293Z,12.18
2019-03-31T07:58:35.261Z,12.21
2019-03-31T07:59:35.283Z,12.23
2019-03-31T08:00:35.243Z,12.25
2019-03-31T08:01:35.249Z,12.33
2019-03-31T08:02:35.252Z,12.23
2019-03-31T08:03:35.247Z,12.41
2019-03-31T08:04:35.227Z,12.40
2019-03-31T08:05:37.686Z,12.36
2019-03-31T08:06:35.210Z,12.33
2019-03-31T08:07:35.175Z,12.46
2019-03-31T08:08:35.154Z,12.41
2019-03-31T08:09:35.163Z,12.51
2019-03-31T08:10:35.137Z,12.58
2019-03-31T08:11:35.124Z,12.54
2019-03-31T08:12:35.125Z,12.71
2019-03-31T08:13:35.113Z,13.06
2019-03-31T08:14:35.097Z,13.46
2019-03-31T08:15:35.083Z,13.57
2019-03-31T08:16:35.103Z,13.93
2019-03-31T08:17:35.077Z,13.96
2019-03-31T08:18:35.046Z,14.05
2019-03-31T08:19:35.033Z,14.31
2019-03-31T08:20:35.027Z,15.38
2019-03-31T08:21:35.012Z,15.83
2019-03-31T08:22:35.071Z,16.06
2019-03-31T08:23:34.991Z,16.59
2019-03-31T08:24:34.981Z,16.90
2019-03-31T08:25:34.967Z,16.82
2019-03-31T08:26:34.957Z,17.13
2019-03-31T08:27:34.947Z,17.37
2019-03-31T08:28:34.953Z,17.68
2019-03-31T08:29:34.941Z,17.79
2019-03-31T08:30:34.937Z,17.71
2019-03-31T08:31:34.941Z,17.69
2019-03-31T08:32:34.895Z,17.45
2019-03-31T08:33:34.907Z,17.38
2019-03-31T08:34:34.873Z,17.12
2019-03-31T08:35:46.580Z,16.72
2019-03-31T08:36:35.852Z,16.64
2019-03-31T08:37:34.839Z,16.40
2019-03-31T08:38:34.847Z,16.22
2019-03-31T08:39:34.820Z,15.95
2019-03-31T08:40:34.803Z,15.77
2019-03-31T08:41:34.794Z,15.69
2019-03-31T08:42:34.791Z,15.56
2019-03-31T08:43:34.831Z,15.32
2019-03-31T08:44:34.766Z,15.10
2019-03-31T08:45:34.757Z,15.15
2019-03-31T08:46:34.774Z,15.11
2019-03-31T08:47:34.744Z,15.12
2019-03-31T08:48:34.722Z,15.19
2019-03-31T08:49:34.728Z,15.26
2019-03-31T08:50:35.091Z,15.26
2019-03-31T08:51:34.688Z,15.11
2019-03-31T08:52:34.773Z,15.15
2019-03-31T08:53:34.669Z,14.93
2019-03-31T08:54:34.673Z,14.77
2019-03-31T08:55:34.640Z,14.67
2019-03-31T08:56:34.634Z,14.53
2019-03-31T08:57:34.618Z,14.38
2019-03-31T08:58:34.632Z,14.44
2019-03-31T08:59:34.616Z,14.36
2019-03-31T09:00:34.595Z,14.34
2019-03-31T09:01:34.579Z,14.08
2019-03-31T09:02:34.567Z,13.94
2019-03-31T09:03:34.557Z,13.90
2019-03-31T09:04:34.604Z,13.83
2019-03-31T09:05:34.533Z,13.71
2019-03-31T09:06:34.526Z,13.64
2019-03-31T09:07:34.521Z,13.60
2019-03-31T09:08:34.502Z,13.43
2019-03-31T09:09:34.504Z,13.30
2019-03-31T09:10:34.503Z,13.23
2019-03-31T09:11:34.468Z,13.16
2019-03-31T09:12:34.468Z,13.08
2019-03-31T09:13:34.450Z,13.14
2019-03-31T09:14:34.472Z,12.91
2019-03-31T09:15:34.421Z,12.87
2019-03-31T09:16:34.430Z,12.88
2019-03-31T09:17:34.407Z,12.69
2019-03-31T09:18:34.394Z,12.72
2019-03-31T09:19:34.379Z,12.59
2019-03-31T09:20:34.384Z,12.54
2019-03-31T09:21:34.358Z,12.48
2019-03-31T09:22:34.352Z,12.36
2019-03-31T09:23:34.353Z,12.35
2019-03-31T09:24:34.356Z,12.26
2019-03-31T09:25:34.346Z,12.22
2019-03-31T09:26:34.305Z,12.15
2019-03-31T09:27:34.294Z,12.03
2019-03-31T09:28:34.281Z,11.89
2019-03-31T09:29:34.275Z,11.93
2019-03-31T09:30:34.288Z,11.87
2019-03-31T09:31:34.255Z,11.84
2019-03-31T09:32:34.250Z,11.84
2019-03-31T09:33:34.233Z,11.69
2019-03-31T09:34:34.231Z,11.54
2019-03-31T09:35:34.210Z,11.56
2019-03-31T09:36:34.208Z,11.43
2019-03-31T09:37:34.183Z,11.41
2019-03-31T09:38:34.174Z,11.37
2019-03-31T09:39:34.166Z,11.34
2019-03-31T09:40:34.182Z,11.19
2019-03-31T09:41:34.155Z,11.20
2019-03-31T09:42:34.128Z,11.09
2019-03-31T09:43:34.119Z,11.03
2019-03-31T09:44:34.107Z,11.03
2019-03-31T09:45:34.097Z,11.12
2019-03-31T09:46:34.144Z,10.98
2019-03-31T09:47:34.082Z,11.03
2019-03-31T09:48:34.063Z,11.05
2019-03-31T09:49:34.056Z,11.05
2019-03-31T09:50:34.047Z,11.18
2019-03-31T09:51:34.054Z,11.15
2019-03-31T09:52:34.076Z,11.12
2019-03-31T09:53:34.011Z,11.25
2019-03-31T09:54:33.997Z,11.28
2019-03-31T09:55:34.002Z,11.31
2019-03-31T09:56:33.981Z,11.45
2019-03-31T09:57:33.986Z,11.48
2019-03-31T09:58:33.955Z,11.48
2019-03-31T09:59:33.957Z,11.48
2019-03-31T10:00:33.939Z,11.52
2019-03-31T10:01:33.922Z,11.66
2019-03-31T10:02:33.941Z,11.69
2019-03-31T10:03:33.901Z,11.77
2019-03-31T10:04:33.889Z,11.88
2019-03-31T10:05:33.877Z,11.85
2019-03-31T10:06:33.897Z,12.04
2019-03-31T10:07:33.872Z,12.00
2019-03-31T10:08:33.863Z,12.15
2019-03-31T10:09:33.832Z,12.18
2019-03-31T10:10:33.827Z,12.18
2019-03-31T10:11:33.838Z,12.68
2019-03-31T10:12:33.851Z,13.51
2019-03-31T10:13:33.811Z,14.03
2019-03-31T10:14:33.812Z,14.33
2019-03-31T10:15:33.766Z,14.40
2019-03-31T10:16:36.306Z,14.59
2019-03-31T10:22:24.659Z,14.45
2019-03-31T10:23:19.086Z,14.36
2019-03-31T10:24:18.986Z,14.27
2019-03-31T10:25:18.990Z,14.16
2019-03-31T10:26:31.084Z,14.05
2019-03-31T10:27:19.966Z,13.97
2019-03-31T10:28:18.993Z,13.80
2019-03-31T10:29:18.934Z,13.63
2019-03-31T10:30:18.926Z,13.47
2019-03-31T10:31:18.948Z,13.30
2019-03-31T10:32:18.908Z,13.24
2019-03-31T10:33:18.911Z,13.17
2019-03-31T10:34:18.884Z,13.29
2019-03-31T10:35:18.875Z,13.27
2019-03-31T10:36:18.862Z,13.26
2019-03-31T10:37:18.854Z,13.32
2019-03-31T10:38:18.884Z,13.40
2019-03-31T10:39:18.828Z,13.49
2019-03-31T10:40:18.824Z,13.60
2019-03-31T10:41:18.810Z,13.67
2019-03-31T10:42:18.799Z,13.73
2019-03-31T10:43:18.788Z,13.82
2019-03-31T10:44:18.788Z,14.16
2019-03-31T10:45:18.786Z,14.63
2019-03-31T10:46:18.751Z,15.11
2019-03-31T10:47:18.738Z,15.60
2019-03-31T10:48:20.634Z,16.10
2019-03-31T10:49:18.741Z,16.36
2019-03-31T10:50:18.707Z,16.32
2019-03-31T10:51:18.748Z,16.40
2019-03-31T10:52:18.745Z,16.59
2019-03-31T10:53:18.671Z,16.51
2019-03-31T10:54:18.677Z,16.32
2019-03-31T10:55:18.655Z,16.08
2019-03-31T10:56:18.638Z,15.95
2019-03-31T10:57:18.643Z,15.93
2019-03-31T10:58:18.626Z,16.08
2019-03-31T10:59:18.645Z,16.37
2019-03-31T11:00:18.601Z,16.62
2019-03-31T11:01:18.598Z,16.77
2019-03-31T11:02:18.572Z,16.82
2019-03-31T11:03:18.560Z,16.73
2019-03-31T11:04:18.568Z,16.67
2019-03-31T11:05:18.546Z,16.54
2019-03-31T11:06:18.533Z,16.57
2019-03-31T11:07:18.517Z,16.43
2019-03-31T11:08:18.509Z,16.39
2019-03-31T11:09:18.509Z,16.28
2019-03-31T11:10:18.483Z,16.16
2019-03-31T11:11:18.471Z,16.00
2019-03-31T11:12:18.476Z,15.99
2019-03-31T11:13:18.458Z,16.06
2019-03-31T11:14:18.486Z,16.21
2019-03-31T11:15:18.465Z,16.26
2019-03-31T11:16:18.423Z,16.40
2019-03-31T11:17:18.409Z,16.42
2019-03-31T11:18:18.413Z,16.70
2019-03-31T11:19:18.397Z,16.82
2019-03-31T11:20:18.397Z,16.90
2019-03-31T11:21:18.365Z,16.87
2019-03-31T11:22:18.365Z,16.70
2019-03-31T11:23:18.354Z,16.54
2019-03-31T11:24:18.337Z,16.26
2019-03-31T11:25:21.213Z,16.42
2019-03-31T11:26:18.371Z,16.61
2019-03-31T11:27:18.322Z,16.70
2019-03-31T11:28:18.291Z,17.10
2019-03-31T11:29:18.284Z,16.92
2019-03-31T11:30:18.310Z,16.77
2019-03-31T11:31:18.260Z,17.31
2019-03-31T11:32:18.265Z,18.36
2019-03-31T11:33:18.272Z,19.23
2019-03-31T11:34:19.647Z,19.75
2019-03-31T11:35:18.229Z,20.26
2019-03-31T11:36:18.205Z,20.70
2019-03-31T11:37:18.202Z,21.26
2019-03-31T11:38:18.184Z,21.63
2019-03-31T11:39:18.188Z,22.09
2019-03-31T11:40:18.191Z,22.56
2019-03-31T11:41:18.152Z,22.88
2019-03-31T11:42:18.140Z,23.08
2019-03-31T11:43:18.140Z,23.36
2019-03-31T11:44:18.121Z,24.10
2019-03-31T11:45:18.128Z,24.90
2019-03-31T11:46:18.103Z,25.45
2019-03-31T11:47:18.096Z,25.55
2019-03-31T11:48:18.088Z,25.06
2019-03-31T11:49:18.079Z,24.55
2019-03-31T11:50:18.100Z,23.92
2019-03-31T11:51:18.056Z,23.56
2019-03-31T11:52:18.070Z,23.51
2019-03-31T11:53:18.031Z,23.03
2019-03-31T11:54:18.014Z,23.28
2019-03-31T11:55:18.058Z,23.84
2019-03-31T11:56:18.006Z,23.94
2019-03-31T11:57:17.995Z,24.25
2019-03-31T11:58:17.977Z,24.56
2019-03-31T11:59:20.668Z,24.33
2019-03-31T12:00:17.978Z,23.96
2019-03-31T12:01:17.976Z,23.44
2019-03-31T12:02:26.955Z,23.07
2019-03-31T12:03:18.943Z,22.80
2019-03-31T12:04:17.928Z,22.73
2019-03-31T12:05:17.906Z,22.85
2019-03-31T12:06:17.905Z,22.53
2019-03-31T12:07:27.789Z,22.36
2019-03-31T12:08:18.865Z,22.00
2019-03-31T12:09:17.872Z,21.66
2019-03-31T12:10:19.842Z,21.32
2019-03-31T12:11:17.869Z,20.80
2019-03-31T12:12:17.840Z,20.53
2019-03-31T12:13:17.809Z,20.41
2019-03-31T12:14:17.814Z,20.17
2019-03-31T12:15:17.811Z,20.07
2019-03-31T12:16:17.819Z,19.97
2019-03-31T12:17:17.767Z,19.52
2019-03-31T12:18:17.758Z,19.12
2019-03-31T12:19:17.745Z,18.98
2019-03-31T12:20:17.741Z,18.91
2019-03-31T12:21:17.765Z,18.42
2019-03-31T12:22:17.711Z,18.31
2019-03-31T12:23:17.703Z,18.24
2019-03-31T12:24:17.697Z,18.57
2019-03-31T12:25:19.842Z,18.54
2019-03-31T12:26:17.685Z,19.05
2019-03-31T12:27:17.663Z,19.08
2019-03-31T12:28:17.651Z,18.97
2019-03-31T12:29:17.641Z,18.86
2019-03-31T12:30:17.630Z,18.58
2019-03-31T12:31:17.644Z,18.45
2019-03-31T12:32:17.609Z,18.30
2019-03-31T12:33:17.603Z,18.26
2019-03-31T12:34:17.596Z,18.18
2019-03-31T12:35:17.573Z,18.12
2019-03-31T12:36:17.563Z,18.09
2019-03-31T12:37:17.569Z,18.93
2019-03-31T12:38:17.536Z,19.41
2019-03-31T12:39:17.533Z,20.37
2019-03-31T12:40:17.525Z,20.46
2019-03-31T12:41:17.512Z,21.18
2019-03-31T12:42:17.512Z,21.59
2019-03-31T12:43:17.508Z,21.78
2019-03-31T12:44:17.482Z,22.07
2019-03-31T12:45:17.472Z,22.61
2019-03-31T12:46:17.458Z,23.45
2019-03-31T12:47:17.462Z,23.76
2019-03-31T12:48:17.458Z,24.16
2019-03-31T12:49:17.418Z,24.23
2019-03-31T12:50:17.410Z,24.70
2019-03-31T12:51:17.402Z,24.82
2019-03-31T12:52:17.397Z,25.21
2019-03-31T12:53:17.387Z,25.38
2019-03-31T12:54:17.378Z,25.75
2019-03-31T12:55:17.366Z,26.01
2019-03-31T12:56:17.344Z,26.11
2019-03-31T12:57:17.375Z,26.27
2019-03-31T12:58:17.364Z,26.64
2019-03-31T12:59:17.418Z,26.95
2019-03-31T13:00:17.346Z,27.20
2019-03-31T13:01:17.291Z,27.37
2019-03-31T13:02:17.300Z,27.52
2019-03-31T13:03:17.278Z,27.38
2019-03-31T13:04:17.268Z,26.64
2019-03-31T13:05:17.256Z,26.21
2019-03-31T13:06:17.254Z,25.83
2019-03-31T13:07:17.262Z,25.83
2019-03-31T13:08:17.216Z,25.38
2019-03-31T13:09:17.206Z,25.09
2019-03-31T13:10:17.200Z,24.81